Portada
METAR-TAF:

METAR-TAF

Aeroports :

Juanjuí, Perú

latitud: 07-10-10S, longitud: 076-43-45W, altitud: 350 m

Observació

L'informe es va fer fa 3 hores i 42 minuts, a les 19:00 UTC
Vent 3 kt del Est/Sud-Est
Temperatura 33°C
Humitat 59%
Pressió 1019 hPa
Visibilitat 10 km o més
Núvols disperses a una alçada de 2200 ft

METAR: SPJI 051900Z 11003KT 9999 SCT022 33/24 Q1019 RMK PP000

Hora: 17:42 (22:42 UTC)

Pronòstic

L'informe es va fer fa 5 hores i 42 minuts, a les 17:00 UTC
Pronòstic vàlid del 05 a les 18 UTC al 06 a les 18 UTC
Vent 4 kt del Est/Sud-Est
Visibilitat 10 km o més
Núvols disperses a una alçada de 2000 ft
Temporalment
l' 06 a les 12 UTC al 06 a les 16 UTC
Visibilitat: 4000 m
Cel ennuvolat a una alçada de 1000 ft
Cel ennuvolat a una alçada de 8000 ft
pluja, boira en bancs

TAF: SPJI 051700Z 0518/0618 12004KT 9999 SCT020 TX33/0520Z TN18/0611Z TEMPO 0612/0616 4000 RA BCFG BKN010 BKN080

Observacions i pronòstics meteorològics de més de 4000 aeroports (METAR i TAF).

Les estacions disponibles són els punts grocs i vermells al mapa.

Posi el ratolí al punt desitjat per veure el nom de l'estació.

Feu clic per veure les observacions i els pronòstics meteorològics.

Per canviar el mapa: feu clic els botons verds amb una creu de color negre per apropar; al botó verd amb un guió per allunyar la imatge; o en les fletxes verdes per a mapes adjacents.


METAR-TAF: